This is the latest recevied weather packets stored in our database for station/object OE-11372. If no packets are shown the sender has not sent any weather packets the latest 10 day(s).
| Time | Temp. | Humidity | Pressure | Rain* | Wind** | Luminosity | Snow |
|---|---|---|---|---|---|---|---|
| 1787632876 | 19.44° C | 50% | 848.5 hPa | 0 mm | - | 0 W/m² | - |
| 1787632503 | 19.44° C | 50% | 848.5 hPa | 0 mm | - | 0 W/m² | - |
| 1787631903 | 20° C | 48% | 848.4 hPa | 0 mm | - | 0 W/m² | - |
| 1787631076 | 19.44° C | 50% | 848.5 hPa | 0 mm | - | 0 W/m² | - |
| 1787630703 | 20° C | 48% | 848.4 hPa | 0 mm | - | 0 W/m² | - |
| 1787630103 | 19.44° C | 49% | 848.5 hPa | 0 mm | - | 0 W/m² | - |
| 1787629503 | 20° C | 48% | 848.5 hPa | 0 mm | - | 0 W/m² | - |
| 1787628903 | 19.44° C | 51% | 848.6 hPa | 0 mm | - | 0 W/m² | - |
| 1787628302 | 18.89° C | 52% | 848.6 hPa | 0 mm | - | 0 W/m² | - |
| 1787627475 | 19.44° C | 50% | 848.8 hPa | 0 mm | - | 0 W/m² | - |
| 1787627102 | 19.44° C | 50% | 848.8 hPa | 0 mm | - | 0 W/m² | - |
| 1787626503 | 19.44° C | 48% | 848.6 hPa | 0 mm | - | 0 W/m² | - |
| 1787625675 | 18.89° C | 51% | 848.7 hPa | 0 mm | - | 0 W/m² | - |
| 1787625318 | 18.89° C | 51% | 848.8 hPa | 0 mm | - | 0 W/m² | - |
| 1787624702 | 18.33° C | 55% | 848.8 hPa | 0 mm | - | 0 W/m² | - |
| 1787623875 | 18.33° C | 55% | 849.1 hPa | 0 mm | - | 0 W/m² | - |
| 1787623502 | 18.89° C | 52% | 849.1 hPa | 0 mm | - | 0 W/m² | - |
| 1787622903 | 18.33° C | 52% | 849.3 hPa | 0 mm | - | 0 W/m² | - |
| 1787622076 | 18.89° C | 53% | 849.6 hPa | 0 mm | - | 0 W/m² | - |
| 1787621703 | 19.44° C | 50% | 849.9 hPa | 0 mm | - | 0 W/m² | - |
| 1787621103 | 18.89° C | 52% | 849.9 hPa | 0 mm | - | 0 W/m² | - |
| 1787620275 | 18.33° C | 54% | 849.8 hPa | 0 mm | - | 0 W/m² | - |
| 1787619903 | 18.33° C | 55% | 850 hPa | 0 mm | - | 0 W/m² | - |
| 1787619302 | 18.89° C | 53% | 850.1 hPa | 0 mm | - | 0 W/m² | - |
| 1787618475 | 18.33° C | 57% | 850.1 hPa | 0 mm | - | 0 W/m² | - |
* Rain latest hour (hover to see other rain measurements)
** Current wind speed in m/s (hover to see current wind gust speed)